This is the latest recevied weather packets stored in our database for station/object WP3OF-2. If no packets are shown the sender has not sent any weather packets the latest 10 day(s).
| Time | Temp. | Humidity | Pressure | Rain* | Wind** | Luminosity | Snow |
|---|---|---|---|---|---|---|---|
| 1788451299 | 23.89° C | 91% | 1026.3 hPa | 0 mm | - | 914 W/m² | - |
| 1788450992 | 23.89° C | 93% | 1026.3 hPa | 0 mm | - | 999 W/m² | - |
| 1788450687 | 23.89° C | 91% | 1026.7 hPa | 0 mm | - | 993 W/m² | - |
| 1788450383 | 23.89° C | 94% | 1026.7 hPa | 0 mm | - | 799 W/m² | - |
| 1788450080 | 23.89° C | 91% | 1026.7 hPa | 0 mm | - | 254 W/m² | - |
| 1788449774 | 24.44° C | 91% | 1026.7 hPa | 0 mm | - | 976 W/m² | - |
| 1788449470 | 24.44° C | 90% | 1026.7 hPa | 0 mm | - | 255 W/m² | - |
| 1788449166 | 24.44° C | 90% | 1026.3 hPa | 0 mm | - | 783 W/m² | - |
| 1788448862 | 24.44° C | 90% | 1026.7 hPa | 0 mm | - | 851 W/m² | - |
| 1788448561 | 25° C | 88% | 1026.7 hPa | 0 mm | - | 871 W/m² | - |
| 1788448256 | 24.44° C | 90% | 1026.7 hPa | 0 mm | - | 881 W/m² | - |
| 1788447950 | 24.44° C | 92% | 1026.7 hPa | 0 mm | - | 851 W/m² | - |
| 1788447646 | 23.89° C | 92% | 1027.1 hPa | 0 mm | - | 344 W/m² | - |
| 1788447345 | 23.89° C | 92% | 1026.7 hPa | 0 mm | - | 871 W/m² | - |
| 1788447041 | 24.44° C | 91% | 1026.7 hPa | 0 mm | - | 990 W/m² | - |
| 1788446739 | 23.89° C | 90% | 1026.7 hPa | 0 mm | - | 907 W/m² | - |
| 1788446436 | 24.44° C | 89% | 1026.7 hPa | 0 mm | - | 877 W/m² | - |
| 1788446132 | 24.44° C | 90% | 1026.7 hPa | 0 mm | - | 861 W/m² | - |
| 1788370980 | 21.11° C | 99% | 1026 hPa | 8.89 mm | - | 60 W/m² | - |
| 1788370676 | 21.11° C | 99% | 1026 hPa | 8.89 mm | - | 60 W/m² | - |
| 1788370374 | 21.11° C | 99% | 1026 hPa | 8.89 mm | - | 60 W/m² | - |
| 1788370069 | 21.67° C | 99% | 1026 hPa | 18.54 mm | - | 103 W/m² | - |
| 1788369763 | 21.67° C | 99% | 1026.7 hPa | 14.99 mm | - | 101 W/m² | - |
| 1788369459 | 21.67° C | 99% | 1026.7 hPa | 14.99 mm | - | 101 W/m² | - |
| 1788369159 | 21.11° C | 97% | 1026.7 hPa | 3.05 mm | - | 143 W/m² | - |
* Rain latest hour (hover to see other rain measurements)
** Current wind speed in m/s (hover to see current wind gust speed)